createdAt,value
2018-12-25T00:00:06.703Z,68.70
2018-12-25T00:02:53.930Z,67.60
2018-12-25T00:05:41.195Z,67.10
2018-12-25T00:08:28.464Z,65.70
2018-12-25T00:11:15.715Z,65.20
2018-12-25T00:14:03.129Z,64.80
2018-12-25T00:16:50.374Z,64.70
2018-12-25T00:19:37.667Z,64.90
2018-12-25T00:22:24.868Z,65.00
2018-12-25T00:24:52.658Z,64.80
2018-12-25T00:27:39.862Z,63.80
2018-12-25T00:30:27.101Z,64.40
2018-12-25T00:33:14.319Z,64.50
2018-12-25T00:36:01.568Z,63.80
2018-12-25T00:38:42.023Z,63.90
2018-12-25T00:41:29.272Z,63.40
2018-12-25T00:44:16.503Z,64.10
2018-12-25T00:47:03.798Z,65.60
2018-12-25T00:49:50.987Z,66.90
2018-12-25T00:54:47.128Z,67.00
2018-12-25T00:57:14.904Z,67.50
2018-12-25T00:59:42.690Z,68.00
2018-12-25T01:02:10.473Z,68.00
2018-12-25T01:04:38.210Z,67.70
2018-12-25T01:07:05.988Z,67.50
2018-12-25T01:09:33.776Z,67.40
2018-12-25T01:12:01.688Z,66.20
2018-12-25T01:14:29.442Z,65.50
2018-12-25T01:16:57.177Z,65.90
2018-12-25T01:19:25.089Z,64.50
2018-12-25T01:21:52.797Z,64.80
2018-12-25T01:24:20.725Z,65.00
2018-12-25T01:26:48.566Z,64.70
2018-12-25T01:29:16.333Z,63.30
2018-12-25T01:31:44.042Z,63.50
2018-12-25T01:34:11.886Z,65.10
2018-12-25T01:36:39.653Z,66.60
2018-12-25T01:39:07.407Z,67.60
2018-12-25T01:41:35.243Z,68.80
2018-12-25T01:44:03.103Z,69.50
2018-12-25T01:46:30.832Z,69.60
2018-12-25T01:48:58.562Z,70.30
2018-12-25T01:51:26.313Z,71.00
2018-12-25T01:53:54.074Z,71.10
2018-12-25T01:56:21.953Z,71.00
2018-12-25T01:58:49.732Z,71.00
2018-12-25T02:01:17.608Z,71.10
2018-12-25T02:03:45.370Z,71.50
2018-12-25T02:06:13.201Z,72.30
2018-12-25T02:08:40.928Z,71.70
2018-12-25T02:11:08.641Z,72.10
2018-12-25T02:13:36.419Z,72.80
2018-12-25T02:16:06.955Z,72.30
2018-12-25T02:18:34.687Z,72.40
2018-12-25T02:21:02.525Z,72.80
2018-12-25T02:23:30.228Z,72.60
2018-12-25T02:25:57.984Z,72.30
2018-12-25T02:28:25.685Z,72.90
2018-12-25T02:30:53.479Z,73.20
2018-12-25T02:33:21.213Z,73.00
2018-12-25T02:35:48.946Z,73.30
2018-12-25T02:38:16.714Z,73.40
2018-12-25T02:40:44.573Z,73.20
2018-12-25T02:43:12.311Z,73.20
2018-12-25T02:45:40.084Z,73.70
2018-12-25T02:48:07.815Z,73.20
2018-12-25T02:50:35.618Z,73.70
2018-12-25T02:53:03.409Z,73.50
2018-12-25T02:55:31.157Z,73.80
2018-12-25T02:58:18.412Z,72.90
2018-12-25T03:00:46.621Z,73.00
2018-12-25T03:03:14.419Z,73.50
2018-12-25T03:05:42.316Z,73.10
2018-12-25T03:08:10.023Z,73.20
2018-12-25T03:10:37.726Z,72.50
2018-12-25T03:13:05.443Z,73.20
2018-12-25T03:15:33.151Z,73.70
2018-12-25T03:18:00.901Z,73.30
2018-12-25T03:20:28.666Z,72.70
2018-12-25T03:22:56.413Z,73.50
2018-12-25T03:25:24.169Z,73.50
2018-12-25T03:27:51.954Z,72.90
2018-12-25T03:30:19.736Z,72.90
2018-12-25T03:32:47.502Z,72.20
2018-12-25T03:35:15.245Z,72.10
2018-12-25T03:37:43.119Z,72.80
2018-12-25T03:40:10.856Z,73.70
2018-12-25T03:42:38.600Z,72.10
2018-12-25T03:45:06.310Z,71.60
2018-12-25T03:47:34.072Z,71.50
2018-12-25T03:50:10.466Z,73.30
2018-12-25T03:52:31.483Z,73.60
2018-12-25T03:54:59.229Z,73.40
2018-12-25T03:57:27.008Z,73.20
2018-12-25T03:59:54.727Z,73.30
2018-12-25T04:02:22.450Z,72.00
2018-12-25T04:05:09.648Z,71.60
2018-12-25T04:07:37.368Z,72.40
2018-12-25T04:10:05.094Z,72.20
2018-12-25T04:12:32.805Z,72.80
2018-12-25T04:15:00.496Z,73.10
2018-12-25T04:17:28.273Z,71.90
2018-12-25T04:19:56.002Z,72.00
2018-12-25T04:22:24.034Z,72.30
2018-12-25T04:24:51.806Z,72.80
2018-12-25T04:27:19.563Z,71.40
2018-12-25T04:29:47.318Z,71.20
2018-12-25T04:32:15.034Z,72.40
2018-12-25T04:34:42.775Z,72.80
2018-12-25T04:37:10.482Z,72.80
2018-12-25T04:39:45.735Z,71.90
2018-12-25T04:42:13.460Z,72.10
2018-12-25T04:44:41.226Z,71.70
2018-12-25T04:47:08.969Z,72.00
2018-12-25T04:49:36.694Z,71.40
2018-12-25T04:52:04.469Z,70.80
2018-12-25T04:54:32.247Z,69.60
2018-12-25T04:56:59.998Z,68.80
2018-12-25T04:59:27.753Z,68.40
2018-12-25T05:01:55.508Z,68.00
2018-12-25T05:04:23.452Z,67.40
2018-12-25T05:06:51.148Z,66.30
2018-12-25T05:09:18.931Z,67.00
2018-12-25T05:11:46.702Z,65.80
2018-12-25T05:14:14.429Z,66.30
2018-12-25T05:16:42.165Z,66.60
2018-12-25T05:19:09.923Z,67.40
2018-12-25T05:21:37.640Z,67.80
2018-12-25T05:24:05.539Z,68.90
2018-12-25T05:26:33.303Z,68.70
2018-12-25T05:29:01.072Z,68.30
2018-12-25T05:31:28.838Z,67.60
2018-12-25T05:33:56.561Z,66.30
2018-12-25T05:36:24.304Z,65.30
2018-12-25T05:38:52.115Z,65.70
2018-12-25T05:41:20.004Z,65.20
2018-12-25T05:43:47.625Z,65.20
2018-12-25T05:46:15.368Z,65.50
2018-12-25T05:48:43.156Z,65.10
2018-12-25T05:51:10.864Z,63.90
2018-12-25T05:53:38.630Z,65.30
2018-12-25T05:56:06.459Z,65.50
2018-12-25T05:58:37.201Z,66.80
2018-12-25T06:01:05.081Z,66.30
2018-12-25T06:03:32.776Z,67.30
2018-12-25T06:06:00.481Z,67.70
2018-12-25T06:08:28.269Z,67.80
2018-12-25T06:10:56.085Z,67.10
2018-12-25T06:13:24.009Z,67.20
2018-12-25T06:15:51.812Z,67.60
2018-12-25T06:18:19.588Z,68.00
2018-12-25T06:20:54.918Z,68.10
2018-12-25T06:23:16.926Z,68.70
2018-12-25T06:25:44.654Z,68.50
2018-12-25T06:28:12.424Z,67.90
2018-12-25T06:30:40.179Z,68.10
2018-12-25T06:33:07.951Z,68.50
2018-12-25T06:35:35.768Z,68.70
2018-12-25T06:38:03.485Z,68.60
2018-12-25T06:40:31.274Z,68.70
2018-12-25T06:42:58.994Z,67.60
2018-12-25T06:45:26.739Z,68.00
2018-12-25T06:47:54.533Z,67.50
2018-12-25T06:50:41.976Z,67.80
2018-12-25T06:53:18.909Z,68.10
2018-12-25T06:55:48.286Z,67.80
2018-12-25T06:58:16.066Z,67.80
2018-12-25T07:00:43.865Z,70.80
2018-12-25T07:03:11.624Z,72.90
2018-12-25T07:05:39.371Z,73.70
2018-12-25T07:08:07.971Z,74.60
2018-12-25T07:10:35.859Z,74.90
2018-12-25T07:13:03.571Z,75.70
2018-12-25T07:15:33.232Z,75.80
2018-12-25T07:18:01.000Z,75.40
2018-12-25T07:20:28.920Z,76.00
2018-12-25T07:22:56.864Z,76.00
2018-12-25T07:25:24.636Z,76.20
2018-12-25T07:27:52.354Z,76.40
2018-12-25T07:30:20.128Z,76.30
2018-12-25T07:32:47.873Z,76.00
2018-12-25T07:35:15.674Z,75.60
2018-12-25T07:37:43.473Z,75.80
2018-12-25T07:40:11.198Z,76.00
2018-12-25T07:42:47.375Z,76.30
2018-12-25T07:45:15.207Z,76.40
2018-12-25T07:47:42.921Z,76.90
2018-12-25T07:50:10.745Z,76.60
2018-12-25T07:52:38.485Z,76.10
2018-12-25T07:55:06.296Z,77.20
2018-12-25T07:57:34.404Z,77.30
2018-12-25T08:00:02.182Z,76.90
2018-12-25T08:02:29.973Z,76.80
2018-12-25T08:04:57.738Z,76.50
2018-12-25T08:07:25.539Z,76.80
2018-12-25T08:09:53.334Z,76.90
2018-12-25T08:12:21.083Z,76.50
2018-12-25T08:14:50.456Z,76.20
2018-12-25T08:17:18.176Z,76.80
2018-12-25T08:19:46.642Z,76.40
2018-12-25T08:22:16.231Z,76.50
2018-12-25T08:24:46.782Z,76.00
2018-12-25T08:27:14.606Z,75.30
2018-12-25T08:29:42.270Z,76.10
2018-12-25T08:32:10.381Z,75.70
2018-12-25T08:34:38.176Z,75.70
2018-12-25T08:37:05.949Z,75.00
2018-12-25T08:39:33.846Z,74.50
2018-12-25T08:42:01.543Z,74.80
2018-12-25T08:44:29.950Z,75.00
2018-12-25T08:47:02.623Z,74.30
2018-12-25T08:49:27.448Z,74.50
2018-12-25T08:51:55.194Z,74.70
2018-12-25T08:54:22.946Z,75.00
2018-12-25T08:56:50.693Z,75.10
2018-12-25T08:59:18.529Z,74.90
2018-12-25T09:01:46.267Z,75.20
2018-12-25T09:04:14.048Z,74.90
2018-12-25T09:06:43.272Z,74.40
2018-12-25T09:09:11.127Z,74.30
2018-12-25T09:11:38.944Z,73.10
2018-12-25T09:14:06.807Z,73.10
2018-12-25T09:16:40.430Z,73.50
2018-12-25T09:19:08.276Z,73.30
2018-12-25T09:21:37.249Z,73.20
2018-12-25T09:24:05.039Z,73.60
2018-12-25T09:26:32.888Z,72.90
2018-12-25T09:29:00.754Z,73.20
2018-12-25T09:31:30.056Z,72.90
2018-12-25T09:33:57.818Z,72.10
2018-12-25T09:36:25.618Z,72.30
2018-12-25T09:38:53.421Z,72.00
2018-12-25T09:41:21.192Z,72.30
2018-12-25T09:43:48.970Z,72.10
2018-12-25T09:46:16.770Z,71.70
2018-12-25T09:48:44.533Z,71.10
2018-12-25T09:51:12.296Z,71.20
2018-12-25T09:53:40.140Z,70.90
2018-12-25T09:56:07.952Z,70.60
2018-12-25T09:58:35.800Z,70.30
2018-12-25T10:01:03.710Z,69.10
2018-12-25T10:03:31.493Z,68.80
2018-12-25T10:05:59.297Z,69.00
2018-12-25T10:08:27.116Z,69.70
2018-12-25T10:10:54.957Z,69.20
2018-12-25T10:13:27.868Z,70.00
2018-12-25T10:15:55.688Z,69.00
2018-12-25T10:18:23.943Z,69.00
2018-12-25T10:20:51.772Z,69.50
2018-12-25T10:23:19.640Z,69.90
2018-12-25T10:25:47.529Z,69.00
2018-12-25T10:28:15.311Z,69.50
2018-12-25T10:30:43.229Z,69.40
2018-12-25T10:33:11.036Z,69.30
2018-12-25T10:35:38.894Z,69.50
2018-12-25T10:38:06.668Z,68.90
2018-12-25T10:40:34.550Z,68.60
2018-12-25T10:43:02.429Z,68.80
2018-12-25T10:45:30.258Z,69.00
2018-12-25T10:47:58.038Z,69.40
2018-12-25T10:50:25.947Z,68.70
2018-12-25T10:52:53.753Z,68.90
2018-12-25T10:55:21.527Z,68.40
2018-12-25T10:57:49.376Z,69.00
2018-12-25T11:00:17.197Z,68.50
2018-12-25T11:02:45.012Z,67.40
2018-12-25T11:05:12.818Z,67.70
2018-12-25T11:07:40.675Z,68.20
2018-12-25T11:10:11.456Z,67.70
2018-12-25T11:12:39.288Z,67.90
2018-12-25T11:15:07.336Z,67.10
2018-12-25T11:17:35.244Z,66.80
2018-12-25T11:20:11.226Z,66.00
2018-12-25T11:22:32.952Z,66.20
2018-12-25T11:25:00.747Z,66.00
2018-12-25T11:27:29.865Z,65.40
2018-12-25T11:29:57.686Z,65.20
2018-12-25T11:32:25.511Z,64.80
2018-12-25T11:34:53.259Z,64.60
2018-12-25T11:37:21.068Z,64.70
2018-12-25T11:39:49.763Z,64.70
2018-12-25T11:42:17.684Z,64.40
2018-12-25T11:44:45.539Z,63.90
2018-12-25T11:47:13.381Z,62.70
2018-12-25T11:49:41.181Z,62.90
2018-12-25T11:52:09.064Z,62.40
2018-12-25T11:54:37.010Z,62.00
2018-12-25T11:57:04.841Z,61.90
2018-12-25T11:59:32.728Z,62.30
2018-12-25T12:02:00.583Z,61.40
2018-12-25T12:04:28.455Z,60.70
2018-12-25T12:06:56.766Z,60.80
2018-12-25T12:09:24.617Z,61.00
2018-12-25T12:11:52.583Z,61.30
2018-12-25T12:14:20.450Z,61.00
2018-12-25T12:16:48.403Z,61.70
2018-12-25T12:19:16.847Z,61.50
2018-12-25T12:21:44.692Z,61.30
2018-12-25T12:24:12.540Z,61.80
2018-12-25T12:26:40.432Z,62.10
2018-12-25T12:29:08.285Z,61.30
2018-12-25T12:31:36.192Z,61.70
2018-12-25T12:34:03.975Z,61.80
2018-12-25T12:36:31.774Z,62.20
2018-12-25T12:38:59.594Z,62.10
2018-12-25T12:41:27.539Z,62.00
2018-12-25T12:43:55.407Z,62.40
2018-12-25T12:46:23.220Z,61.90
2018-12-25T12:48:51.084Z,61.90
2018-12-25T12:51:18.902Z,61.30
2018-12-25T12:53:46.802Z,61.10
2018-12-25T12:56:14.591Z,61.00
2018-12-25T12:58:42.454Z,60.70
2018-12-25T13:01:10.414Z,61.10
2018-12-25T13:03:38.392Z,61.10
2018-12-25T13:06:06.372Z,60.00
2018-12-25T13:08:34.162Z,60.20
2018-12-25T13:11:02.039Z,59.80
2018-12-25T13:13:29.958Z,60.10
2018-12-25T13:15:57.868Z,60.60
2018-12-25T13:18:28.526Z,60.80
2018-12-25T13:20:57.911Z,61.50
2018-12-25T13:23:25.950Z,60.70
2018-12-25T13:25:53.913Z,61.00
2018-12-25T13:28:21.884Z,61.00
2018-12-25T13:30:49.832Z,60.90
2018-12-25T13:33:17.792Z,61.20
2018-12-25T13:35:45.598Z,61.00
2018-12-25T13:38:13.460Z,60.90
2018-12-25T13:40:41.321Z,60.40
2018-12-25T13:43:09.310Z,60.40
2018-12-25T13:45:37.137Z,60.30
2018-12-25T13:48:05.015Z,60.90
2018-12-25T13:50:32.807Z,61.20
2018-12-25T13:53:03.014Z,61.80
2018-12-25T13:55:30.349Z,61.20
2018-12-25T13:57:58.238Z,61.70
2018-12-25T14:00:26.239Z,61.10
2018-12-25T14:02:54.067Z,62.20
2018-12-25T14:05:21.869Z,62.30
2018-12-25T14:07:49.809Z,63.10
2018-12-25T14:10:17.606Z,62.90
2018-12-25T14:12:45.565Z,62.80
2018-12-25T14:15:13.514Z,62.90
2018-12-25T14:17:41.386Z,63.00
2018-12-25T14:20:09.362Z,63.20
2018-12-25T14:22:37.205Z,62.90
2018-12-25T14:25:05.790Z,63.10
2018-12-25T14:27:33.545Z,63.20
2018-12-25T14:30:01.326Z,63.10
2018-12-25T14:32:29.193Z,63.70
2018-12-25T14:34:57.194Z,63.90
2018-12-25T14:37:25.031Z,63.50
2018-12-25T14:39:52.984Z,63.80
2018-12-25T14:42:20.781Z,63.90
2018-12-25T14:44:48.904Z,64.10
2018-12-25T14:47:17.017Z,64.10
2018-12-25T14:49:44.970Z,64.50
2018-12-25T14:52:12.814Z,64.40
2018-12-25T14:54:40.657Z,64.60
2018-12-25T14:57:08.655Z,64.40
2018-12-25T14:59:36.564Z,64.80
2018-12-25T15:02:04.481Z,64.80
2018-12-25T15:04:32.395Z,64.40
2018-12-25T15:07:00.213Z,64.70
2018-12-25T15:09:28.185Z,64.40
2018-12-25T15:11:56.130Z,64.60
2018-12-25T15:14:24.032Z,64.70
2018-12-25T15:16:51.896Z,64.70
2018-12-25T15:19:19.812Z,64.90
2018-12-25T15:21:47.652Z,64.90
2018-12-25T15:24:15.518Z,65.30
2018-12-25T15:26:43.492Z,65.20
2018-12-25T15:29:11.355Z,65.00
2018-12-25T15:31:39.154Z,65.70
2018-12-25T15:34:07.069Z,65.90
2018-12-25T15:36:35.246Z,66.30
2018-12-25T15:39:07.389Z,66.00
2018-12-25T15:41:35.224Z,66.30
2018-12-25T15:44:03.095Z,66.80
2018-12-25T15:46:30.923Z,66.90
2018-12-25T15:48:58.805Z,67.20
2018-12-25T15:51:26.679Z,65.10
2018-12-25T15:53:54.526Z,63.80
2018-12-25T15:56:22.376Z,63.30
2018-12-25T15:58:50.320Z,62.90
2018-12-25T16:01:18.116Z,63.60
2018-12-25T16:03:45.990Z,63.80
2018-12-25T16:06:13.915Z,63.10
2018-12-25T16:08:41.800Z,63.90
2018-12-25T16:11:09.658Z,63.20
2018-12-25T16:13:39.206Z,62.60
2018-12-25T16:16:07.138Z,63.20
2018-12-25T16:18:35.184Z,63.60
2018-12-25T16:21:03.083Z,63.00
2018-12-25T16:23:30.982Z,62.50
2018-12-25T16:25:58.948Z,62.60
2018-12-25T16:28:26.864Z,64.10
2018-12-25T16:30:54.708Z,62.90
2018-12-25T16:33:22.680Z,63.90
2018-12-25T16:35:50.744Z,63.90
2018-12-25T16:38:18.565Z,62.90
2018-12-25T16:40:46.417Z,63.00
2018-12-25T16:43:14.530Z,62.10
2018-12-25T16:45:42.506Z,61.60
2018-12-25T16:48:10.428Z,61.70
2018-12-25T16:50:40.196Z,61.80
2018-12-25T16:53:08.051Z,61.80
2018-12-25T16:55:35.943Z,61.80
2018-12-25T16:58:03.813Z,61.60
2018-12-25T17:00:32.234Z,61.70
2018-12-25T17:03:00.108Z,60.90
2018-12-25T17:05:28.029Z,60.60
2018-12-25T17:07:57.443Z,61.30
2018-12-25T17:10:25.426Z,61.50
2018-12-25T17:12:53.350Z,61.60
2018-12-25T17:15:21.366Z,61.50
2018-12-25T17:17:49.241Z,61.50
2018-12-25T17:20:17.156Z,61.40
2018-12-25T17:22:44.970Z,61.00
2018-12-25T17:25:14.167Z,61.40
2018-12-25T17:27:42.130Z,60.90
2018-12-25T17:30:09.990Z,60.60
2018-12-25T17:32:37.869Z,60.50
2018-12-25T17:35:05.896Z,60.70
2018-12-25T17:37:33.662Z,60.00
2018-12-25T17:40:01.568Z,59.80
2018-12-25T17:42:29.537Z,60.00
2018-12-25T17:45:23.925Z,60.10
2018-12-25T17:47:52.276Z,59.80
2018-12-25T17:50:20.528Z,59.70
2018-12-25T17:52:51.260Z,59.70
2018-12-25T17:55:19.290Z,59.60
2018-12-25T17:57:47.220Z,59.70
2018-12-25T18:00:15.191Z,61.10
2018-12-25T18:02:43.139Z,62.30
2018-12-25T18:05:12.054Z,63.20
2018-12-25T18:07:40.298Z,62.80
2018-12-25T18:10:08.307Z,62.60
2018-12-25T18:12:36.271Z,62.50
2018-12-25T18:15:08.487Z,63.00
2018-12-25T18:17:36.423Z,62.60
2018-12-25T18:20:04.833Z,62.30
2018-12-25T18:22:32.699Z,62.50
2018-12-25T18:25:00.597Z,62.10
2018-12-25T18:27:28.491Z,62.10
2018-12-25T18:29:56.350Z,61.60
2018-12-25T18:32:24.433Z,61.90
2018-12-25T18:34:52.441Z,61.90
2018-12-25T18:37:20.352Z,62.30
2018-12-25T18:39:57.236Z,62.90
2018-12-25T18:42:28.610Z,62.80
2018-12-25T18:44:59.339Z,62.60
2018-12-25T18:47:33.263Z,63.20
2018-12-25T18:50:01.395Z,63.20
2018-12-25T18:52:29.283Z,63.00
2018-12-25T18:54:58.493Z,63.00
2018-12-25T18:57:26.717Z,62.90
2018-12-25T18:59:54.711Z,63.20
2018-12-25T19:02:22.908Z,63.20
2018-12-25T19:04:50.952Z,63.50
2018-12-25T19:07:18.817Z,63.60
2018-12-25T19:09:46.748Z,63.60
2018-12-25T19:12:14.596Z,63.80
2018-12-25T19:15:22.521Z,63.80
2018-12-25T19:17:58.928Z,63.90
2018-12-25T19:20:26.837Z,64.10
2018-12-25T19:22:54.864Z,64.60
2018-12-25T19:25:22.838Z,65.60
2018-12-25T19:27:50.796Z,64.70
2018-12-25T19:30:23.100Z,64.80
2018-12-25T19:32:51.403Z,64.70
2018-12-25T19:35:22.068Z,64.70
2018-12-25T19:37:50.383Z,64.70
2018-12-25T19:40:20.492Z,64.50
2018-12-25T19:42:48.459Z,64.40
2018-12-25T19:45:16.850Z,64.60
2018-12-25T19:47:47.500Z,64.40
2018-12-25T19:50:15.720Z,64.50
2018-12-25T19:52:43.707Z,64.10
2018-12-25T19:55:11.690Z,64.10
2018-12-25T19:57:39.707Z,64.30
2018-12-25T20:00:10.381Z,63.30
2018-12-25T20:02:40.324Z,63.20
2018-12-25T20:06:42.914Z,63.60
2018-12-25T20:10:13.332Z,63.90
2018-12-25T20:13:40.298Z,63.80
2018-12-25T20:17:10.471Z,63.50
2018-12-25T20:20:42.852Z,63.50
2018-12-25T20:24:20.655Z,63.60
2018-12-25T20:28:04.562Z,64.00
2018-12-25T20:31:45.259Z,63.50
2018-12-25T20:35:11.748Z,63.40
2018-12-25T20:38:29.738Z,64.00
2018-12-25T20:42:18.355Z,64.10
2018-12-25T20:46:05.588Z,64.50
2018-12-25T20:49:53.466Z,64.60
2018-12-25T20:53:55.482Z,64.00
2018-12-25T20:57:26.585Z,64.00
2018-12-25T21:01:07.562Z,64.30
2018-12-25T21:04:44.366Z,64.40
2018-12-25T21:08:29.213Z,64.50
2018-12-25T21:12:16.459Z,64.80
2018-12-25T21:15:56.530Z,65.20
2018-12-25T21:19:20.406Z,65.60
2018-12-25T21:22:45.012Z,65.10
2018-12-25T21:26:08.024Z,65.10
2018-12-25T21:28:36.128Z,65.30
2018-12-25T21:31:04.536Z,65.20
2018-12-25T21:33:33.414Z,64.90
2018-12-25T21:36:05.167Z,65.50
2018-12-25T21:38:33.506Z,65.20
2018-12-25T21:41:03.982Z,64.90
2018-12-25T21:43:35.144Z,65.00
2018-12-25T21:46:03.632Z,64.90
2018-12-25T21:48:32.396Z,64.40
2018-12-25T21:51:00.944Z,64.40
2018-12-25T21:53:32.013Z,64.40
2018-12-25T21:56:00.738Z,64.40
2018-12-25T21:58:30.532Z,64.40
2018-12-25T22:00:58.966Z,64.40
2018-12-25T22:03:30.306Z,64.40
2018-12-25T22:05:58.338Z,64.40
2018-12-25T22:08:26.304Z,64.20
2018-12-25T22:10:57.628Z,64.40
2018-12-25T22:13:28.591Z,64.30
2018-12-25T22:15:59.032Z,63.80
2018-12-25T22:18:26.898Z,63.80
2018-12-25T22:20:55.273Z,64.40
2018-12-25T22:23:23.450Z,65.10
2018-12-25T22:25:51.695Z,65.20
2018-12-25T22:28:22.435Z,65.40
2018-12-25T22:30:50.423Z,65.70
2018-12-25T22:33:20.845Z,65.70
2018-12-25T22:35:51.823Z,66.30
2018-12-25T22:38:19.836Z,66.20
2018-12-25T22:40:48.654Z,66.50
2018-12-25T22:43:16.534Z,67.20
2018-12-25T22:45:44.616Z,67.60
2018-12-25T22:48:12.703Z,68.30
2018-12-25T22:50:43.887Z,68.30
2018-12-25T22:53:11.946Z,68.30
2018-12-25T22:55:39.982Z,68.70
2018-12-25T22:58:10.972Z,68.60
2018-12-25T23:00:39.446Z,69.40
2018-12-25T23:03:07.390Z,69.10
2018-12-25T23:05:37.427Z,68.70
2018-12-25T23:08:06.140Z,68.70
2018-12-25T23:10:34.154Z,69.10
2018-12-25T23:13:05.090Z,69.20
2018-12-25T23:15:32.910Z,69.40
2018-12-25T23:18:00.821Z,69.60
2018-12-25T23:20:29.156Z,68.90
2018-12-25T23:22:57.114Z,69.70
2018-12-25T23:25:24.945Z,69.20
2018-12-25T23:27:52.955Z,69.40
2018-12-25T23:30:20.798Z,69.30
2018-12-25T23:33:02.027Z,68.10
2018-12-25T23:35:29.920Z,67.90
2018-12-25T23:37:57.966Z,67.80
2018-12-25T23:40:45.488Z,67.00
2018-12-25T23:43:33.019Z,66.90
2018-12-25T23:46:00.836Z,66.10
2018-12-25T23:48:48.545Z,66.50
2018-12-25T23:51:16.430Z,66.90
2018-12-25T23:53:44.351Z,66.80
2018-12-25T23:56:12.147Z,66.60
2018-12-25T23:58:59.613Z,66.30
